Terminal Aerodrome Forecast
Issued by NWS

Home | Current Version | Previous Version | Text Only | Print | Product List | Glossary Off
Versions: 1 2 3 4 5 6 7 8 9 10 11 12 13 14 15 16

000
FTUS45 KGGW 291100
TAFSDY
TAF
KSDY 291137Z 2912/3012 09009KT P6SM OVC012
     FM291600 10008KT 6SM -SHRA OVC009
     FM292200 12014KT 6SM -SHRA OVC015
      AMD LTD TO CLD VIS AND WIND=

USA.gov is the U.S. government's official web portal to all federal, state and local government web resources and services.